Hermon, Illinois
Current Conditions -  °F | °C
As of 6:55 AM on Friday 19 Dec 2014 (Local Time) from KGBG Reporting Station
Clear Clear  
Wind Chill: 19°   Ceiling: Unl
Heat Index: 19°   Visibility: 7mi
Dew Point: 18°   Wind: 0mph
Humidity: 96%   Direction: NA
Pressure: 30.31"   Gusts: NA
Location:  40.7772°N, 90.2082°W
Report Text: KGBG 191255Z AUTO 00000KT 7SM CLR M07/M08 A3031 RMK AO2 T10721077
Loading
Personal Weather Stations






























Interactive Weather Map New forecast layout! Learn more

10-Day Weather Forecast

Advertisements
Track Severe Weather on mobile